Time;durP1;ratioP1;P1;durP2;ratioP2;P2;SDS_P1;SDS_P2;PMS_P1;PMS_P2;Temp;Humidity;BMP_temperature;BMP_pressure;BME280_temperature;BME280_humidity;BME280_pressure;Samples;Min_cycle;Max_cycle;Signal;HPM_P1;HPM_P2
2023/01/03 00:01:29;;;;;;;33.53;17.45;;;8.00;99.90;;;;;;4999210;28;20037;-81
2023/01/03 00:03:56;;;;;;;28.88;17.70;;;8.10;99.90;;;;;;4983359;28;20044;-81
2023/01/03 00:06:27;;;;;;;26.13;15.80;;;8.10;99.90;;;;;;4999170;28;20437;-82
2023/01/03 00:08:55;;;;;;;31.40;16.80;;;8.10;99.90;;;;;;5016651;28;20482;-81
2023/01/03 00:12:22;;;;;;;28.67;16.52;;;8.10;99.90;;;;;;5016743;28;20030;-81
2023/01/03 00:14:15;;;;;;;29.33;15.60;;;8.10;99.90;;;;;;5016265;28;20041;-82
2023/01/03 00:16:41;;;;;;;27.60;15.65;;;8.10;99.90;;;;;;4999054;28;20026;-82
2023/01/03 00:19:11;;;;;;;22.05;15.48;;;8.10;99.90;;;;;;4982915;28;20054;-81
2023/01/03 00:21:38;;;;;;;25.83;15.52;;;8.10;99.90;;;;;;4992954;28;20047;-82
2023/01/03 00:24:04;;;;;;;26.00;16.73;;;8.10;99.90;;;;;;4999088;28;20029;-81
2023/01/03 00:26:30;;;;;;;25.63;16.23;;;8.10;99.90;;;;;;5016168;28;20594;-83
2023/01/03 00:28:56;;;;;;;29.70;17.48;;;8.10;99.90;;;;;;4999159;28;20125;-83
2023/01/03 00:31:22;;;;;;;25.55;15.63;;;8.10;99.90;;;;;;5015988;28;20466;-82
2023/01/03 00:33:48;;;;;;;23.55;16.10;;;8.10;99.90;;;;;;4981872;28;20026;-82
2023/01/03 00:36:16;;;;;;;24.65;16.27;;;8.20;99.90;;;;;;4982498;28;20029;-83
2023/01/03 00:38:41;;;;;;;27.60;16.63;;;8.20;99.90;;;;;;4983312;28;20042;-83
2023/01/03 00:41:13;;;;;;;25.55;16.75;;;8.20;99.90;;;;;;4982710;28;20435;-83
2023/01/03 00:43:39;;;;;;;;;;;8.20;99.90;;;;;;4999541;28;20117;-83
2023/01/03 00:46:06;;;;;;;27.23;16.67;;;8.20;99.90;;;;;;4998972;28;19945;-82
2023/01/03 00:48:32;;;;;;;23.42;15.95;;;8.20;99.90;;;;;;5016136;28;20034;-82
2023/01/03 00:51:08;;;;;;;27.27;16.83;;;8.20;99.90;;;;;;4982906;28;20470;-82
2023/01/03 00:53:34;;;;;;;27.77;17.38;;;8.20;99.90;;;;;;5016158;28;20033;-82
2023/01/03 00:56:09;;;;;;;26.02;16.15;;;8.10;99.90;;;;;;4998720;28;20030;-82
2023/01/03 00:58:35;;;;;;;27.92;16.10;;;8.10;99.90;;;;;;4998644;28;20120;-83
2023/01/03 01:01:08;;;;;;;27.38;16.40;;;8.10;99.90;;;;;;4982149;28;20026;-83
2023/01/03 01:03:36;;;;;;;29.23;18.48;;;8.10;99.90;;;;;;4998190;28;20033;-83
2023/01/03 01:06:24;;;;;;;29.50;17.52;;;8.00;99.90;;;;;;4998652;28;20121;-83
2023/01/03 01:08:52;;;;;;;31.38;18.73;;;8.00;99.90;;;;;;4998587;28;20041;-83
2023/01/03 01:11:18;;;;;;;28.63;18.05;;;8.00;99.90;;;;;;4998288;28;20152;-84
2023/01/03 01:13:45;;;;;;;28.88;18.63;;;8.00;99.90;;;;;;4997936;28;20090;-83
2023/01/03 01:16:13;;;;;;;29.17;18.85;;;8.00;99.90;;;;;;4982327;28;20034;-83
2023/01/03 01:18:40;;;;;;;31.95;18.95;;;8.00;99.90;;;;;;4997691;28;20054;-82
2023/01/03 01:21:07;;;;;;;31.35;20.92;;;8.00;99.90;;;;;;4998454;28;20018;-82
2023/01/03 01:23:38;;;;;;;30.20;18.63;;;8.00;99.90;;;;;;4998255;28;20108;-83
2023/01/03 01:26:05;;;;;;;25.65;18.83;;;8.00;99.90;;;;;;4998493;28;20084;-83
2023/01/03 01:28:32;;;;;;;29.48;19.55;;;8.00;99.90;;;;;;4997903;28;20050;-83
2023/01/03 01:31:02;;;;;;;29.38;17.63;;;8.00;99.90;;;;;;4998299;28;20104;-83
2023/01/03 01:33:31;;;;;;;31.58;19.40;;;8.00;99.90;;;;;;4998498;28;20022;-83
2023/01/03 01:35:57;;;;;;;30.95;20.00;;;8.00;99.90;;;;;;4998720;28;20068;-83
2023/01/03 01:38:23;;;;;;;30.65;19.83;;;8.00;99.90;;;;;;4981941;28;20033;-83
2023/01/03 01:40:48;;;;;;;31.40;20.05;;;8.00;99.90;;;;;;4981816;28;20037;-83
2023/01/03 01:46:28;;;;;;;29.85;20.10;;;8.00;99.90;;;;;;5015901;28;20524;-83
2023/01/03 01:49:02;;;;;;;30.42;19.65;;;7.90;99.90;;;;;;5015878;28;20096;-83
2023/01/03 01:51:31;;;;;;;29.50;18.58;;;7.90;99.90;;;;;;5015256;28;20033;-83
2023/01/03 01:53:59;;;;;;;29.27;20.48;;;7.80;99.90;;;;;;4997733;28;20030;-83
2023/01/03 01:56:30;;;;;;;31.02;19.67;;;7.80;99.90;;;;;;4997705;28;20029;-83
2023/01/03 01:58:56;;;;;;;28.60;19.63;;;7.80;99.90;;;;;;4997862;28;20030;-83
2023/01/03 02:01:24;;;;;;;29.88;19.88;;;7.80;99.90;;;;;;4997948;28;20025;-83
2023/01/03 02:04:00;;;;;;;29.08;20.00;;;7.80;99.90;;;;;;4997843;28;20029;-83
2023/01/03 02:06:27;;;;;;;29.58;18.30;;;7.80;99.90;;;;;;4998268;28;20033;-82
2023/01/03 02:08:53;;;;;;;33.40;22.00;;;7.80;99.90;;;;;;4981978;28;20193;-83
2023/01/03 02:13:04;;;;;;;31.27;21.15;;;7.70;99.90;;;;;;4982134;28;20500;-83
2023/01/03 02:14:46;;;;;;;31.23;19.55;;;7.70;99.90;;;;;;5015124;28;20359;-83
2023/01/03 02:17:25;;;;;;;27.20;19.52;;;7.70;99.90;;;;;;4999657;28;20022;-83
2023/01/03 02:20:19;;;;;;;30.20;19.52;;;7.70;99.90;;;;;;5003934;28;20050;-83
2023/01/03 02:23:11;;;;;;;30.45;20.17;;;7.70;99.90;;;;;;5011088;28;20057;-83
2023/01/03 02:25:45;;;;;;;34.67;19.95;;;7.70;99.90;;;;;;5016231;28;20042;-83
2023/01/03 02:28:47;;;;;;;29.83;19.23;;;7.70;99.90;;;;;;5007076;28;20038;-82
2023/01/03 02:31:37;;;;;;;27.13;17.95;;;7.60;99.90;;;;;;5015115;28;20037;-82
2023/01/03 02:34:20;;;;;;;27.98;18.55;;;7.50;99.90;;;;;;5015923;28;20084;-82
2023/01/03 02:36:51;;;;;;;32.28;19.05;;;7.50;99.90;;;;;;5021899;28;20022;-82
2023/01/03 02:39:26;;;;;;;29.25;18.98;;;7.40;99.90;;;;;;5016357;28;20026;-82
2023/01/03 02:45:10;;;;;;;30.58;20.08;;;7.30;99.90;;;;;;4999565;28;20072;-82
2023/01/03 02:47:47;;;;;;;37.65;21.95;;;7.30;99.90;;;;;;4997019;28;20038;-83
2023/01/03 02:50:13;;;;;;;38.83;21.60;;;7.20;99.90;;;;;;4997071;28;20080;-83
2023/01/03 02:52:40;;;;;;;38.40;22.33;;;7.20;99.90;;;;;;4980622;28;20034;-83
2023/01/03 02:55:20;;;;;;;41.67;24.55;;;7.20;99.90;;;;;;4996741;28;20037;-83
2023/01/03 02:57:53;;;;;;;38.08;25.20;;;7.30;99.90;;;;;;4995630;28;20057;-83
2023/01/03 03:00:24;;;;;;;54.25;28.83;;;7.20;99.90;;;;;;4996654;28;20026;-82
2023/01/03 03:02:55;;;;;;;42.72;25.15;;;7.20;99.90;;;;;;4996427;28;20018;-82
2023/01/03 03:05:26;;;;;;;46.67;24.80;;;7.10;99.90;;;;;;4996604;28;20115;-82
2023/01/03 03:07:52;;;;;;;44.83;26.63;;;7.10;99.90;;;;;;4996517;28;20095;-82
2023/01/03 03:13:32;;;;;;;43.03;25.67;;;7.00;99.90;;;;;;4999003;28;20040;-82
2023/01/03 03:24:48;;;;;;;46.20;26.10;;;7.00;99.90;;;;;;5004235;28;20128;-82
2023/01/03 03:24:58;;;;;;;48.13;27.77;;;7.00;99.90;;;;;;5013764;28;20397;-82
2023/01/03 03:30:13;;;;;;;51.58;27.80;;;7.00;99.90;;;;;;4999245;28;20036;-83
2023/01/03 03:32:42;;;;;;;52.38;28.83;;;7.10;99.90;;;;;;5013811;28;20382;-82
2023/01/03 03:35:11;;;;;;;39.05;25.15;;;7.10;99.90;;;;;;4996090;28;20029;-82
2023/01/03 03:37:38;;;;;;;49.33;27.05;;;7.10;99.90;;;;;;4996078;28;20454;-82
2023/01/03 03:45:58;;;;;;;47.53;26.55;;;7.00;99.90;;;;;;5013456;28;20045;-83
2023/01/03 03:49:42;;;;;;;48.72;26.27;;;7.00;99.90;;;;;;4996191;28;20506;-83
2023/01/03 03:51:38;;;;;;;49.20;27.35;;;7.00;99.90;;;;;;5008789;28;20030;-84
2023/01/03 03:54:10;;;;;;;42.03;24.73;;;6.90;99.90;;;;;;4996438;28;20018;-83
2023/01/03 03:56:37;;;;;;;35.50;23.23;;;6.90;99.90;;;;;;5013771;28;20026;-84
2023/01/03 03:59:06;;;;;;;36.65;23.38;;;6.90;99.90;;;;;;4980280;28;20125;-83
2023/01/03 04:01:34;;;;;;;38.95;22.05;;;6.80;99.90;;;;;;4996228;28;20377;-83
2023/01/03 04:04:06;;;;;;;33.97;21.60;;;6.80;99.90;;;;;;4995840;28;20377;-82
2023/01/03 04:06:41;;;;;;;36.80;22.17;;;6.80;99.90;;;;;;4996101;28;20025;-83
2023/01/03 04:09:07;;;;;;;32.85;18.48;;;6.70;99.90;;;;;;4996572;28;20034;-83
2023/01/03 04:11:33;;;;;;;30.15;18.45;;;6.60;99.90;;;;;;5000463;28;20026;-83
2023/01/03 04:13:59;;;;;;;29.67;18.13;;;6.60;99.90;;;;;;4999870;28;20112;-83
2023/01/03 04:16:24;;;;;;;28.23;17.08;;;6.50;99.90;;;;;;4983431;28;20129;-83
2023/01/03 04:18:50;;;;;;;25.88;17.25;;;6.40;99.90;;;;;;5017037;28;20121;-83
2023/01/03 04:21:16;;;;;;;24.02;15.75;;;6.30;99.90;;;;;;4983230;28;20032;-83
2023/01/03 04:23:41;;;;;;;31.27;16.65;;;6.30;99.90;;;;;;4983118;28;20474;-83
2023/01/03 04:26:07;;;;;;;30.63;18.65;;;6.20;99.90;;;;;;4999192;28;20022;-84
2023/01/03 04:28:33;;;;;;;22.98;15.50;;;6.20;99.90;;;;;;4967355;28;20533;-83
2023/01/03 04:30:58;;;;;;;28.05;17.27;;;6.10;99.90;;;;;;4997847;28;20022;-83
2023/01/03 04:33:24;;;;;;;28.98;16.90;;;6.10;99.90;;;;;;4999151;28;20475;-82
2023/01/03 04:35:50;;;;;;;25.42;16.73;;;6.00;99.90;;;;;;4999272;28;20033;-83
2023/01/03 04:38:16;;;;;;;31.02;17.05;;;6.00;99.90;;;;;;4999568;28;20037;-83
2023/01/03 04:40:41;;;;;;;27.55;16.48;;;5.90;99.90;;;;;;4983770;28;20417;-85
2023/01/03 04:45:53;;;;;;;27.23;17.23;;;5.90;99.90;;;;;;5016758;28;20068;-83
2023/01/03 04:48:19;;;;;;;31.15;16.92;;;6.00;99.90;;;;;;4999362;28;20069;-83
2023/01/03 04:50:57;;;;;;;27.65;17.05;;;6.00;99.90;;;;;;4982398;28;20116;-84
2023/01/03 04:53:24;;;;;;;35.05;18.58;;;6.00;99.90;;;;;;4999064;28;20033;-83
2023/01/03 04:55:51;;;;;;;23.77;16.60;;;6.10;99.90;;;;;;4982475;28;20026;-84
2023/01/03 04:58:18;;;;;;;26.25;17.27;;;6.10;99.90;;;;;;5016393;28;20091;-83
2023/01/03 05:00:44;;;;;;;26.15;16.60;;;6.10;99.90;;;;;;4998437;28;20022;-85
2023/01/03 05:03:10;;;;;;;24.15;16.15;;;6.20;99.90;;;;;;4998682;28;20033;-83
2023/01/03 05:05:38;;;;;;;25.60;17.00;;;6.20;99.90;;;;;;5016286;28;20026;-83
2023/01/03 05:08:05;;;;;;;24.58;16.13;;;6.20;99.90;;;;;;4998652;28;20029;-82
2023/01/03 05:10:32;;;;;;;29.48;18.35;;;6.20;99.90;;;;;;4998597;28;20030;-83
2023/01/03 05:13:01;;;;;;;28.30;17.42;;;6.20;99.90;;;;;;4982710;28;20033;-83
2023/01/03 05:15:28;;;;;;;31.83;18.17;;;6.20;99.90;;;;;;4998525;28;20038;-82
2023/01/03 05:17:54;;;;;;;27.20;16.55;;;6.20;99.90;;;;;;4983477;28;20111;-84
2023/01/03 05:25:52;;;;;;;27.92;14.85;;;6.10;99.90;;;;;;5015865;28;20390;-84
2023/01/03 05:28:21;;;;;;;21.23;14.25;;;6.10;99.90;;;;;;5015810;28;20034;-83
2023/01/03 05:30:46;;;;;;;22.40;13.63;;;6.10;99.90;;;;;;5015824;28;20450;-83
2023/01/03 05:33:12;;;;;;;24.55;14.35;;;6.00;99.90;;;;;;4981506;28;20033;-83
2023/01/03 05:35:38;;;;;;;24.08;13.05;;;6.00;99.90;;;;;;4998641;28;20033;-83
2023/01/03 05:38:04;;;;;;;23.23;13.38;;;5.90;99.90;;;;;;4981968;28;20148;-84
2023/01/03 05:40:30;;;;;;;22.00;13.02;;;5.90;99.90;;;;;;5014613;28;20379;-84
2023/01/03 05:42:55;;;;;;;19.92;12.80;;;5.80;99.90;;;;;;4981151;28;20033;-84
2023/01/03 05:45:24;;;;;;;20.67;12.93;;;5.70;99.90;;;;;;4982367;28;20091;-83
2023/01/03 05:47:57;;;;;;;26.55;13.50;;;5.70;99.90;;;;;;4982751;28;20550;-85
2023/01/03 05:50:23;;;;;;;21.08;13.18;;;5.70;99.90;;;;;;5001064;28;20077;-83
2023/01/03 05:52:49;;;;;;;26.20;13.35;;;5.60;99.90;;;;;;5015466;28;20017;-83
2023/01/03 05:55:15;;;;;;;24.25;13.13;;;5.50;99.90;;;;;;4998783;28;20036;-83
2023/01/03 05:57:41;;;;;;;18.75;11.98;;;5.50;99.90;;;;;;4998532;28;20441;-83
2023/01/03 06:00:08;;;;;;;23.05;12.68;;;5.50;99.90;;;;;;4998363;28;20092;-84
2023/01/03 06:02:33;;;;;;;24.27;13.52;;;5.40;99.90;;;;;;5002108;28;20018;-84
2023/01/03 06:04:59;;;;;;;19.63;12.68;;;5.40;99.90;;;;;;5002740;28;20546;-83
2023/01/03 06:07:25;;;;;;;25.73;13.27;;;5.40;99.90;;;;;;5005186;28;20013;-86
2023/01/03 06:09:50;;;;;;;25.10;14.20;;;5.30;99.90;;;;;;5022075;28;20102;-84
2023/01/03 06:12:16;;;;;;;20.92;13.43;;;5.30;99.90;;;;;;5003581;28;20079;-84
2023/01/03 06:14:44;;;;;;;21.92;12.65;;;5.30;99.90;;;;;;4992090;28;20014;-89
2023/01/03 06:19:54;;;;;;;29.08;14.68;;;5.40;99.90;;;;;;5009277;28;20124;-85
2023/01/03 06:22:23;;;;;;;24.50;14.88;;;5.40;99.90;;;;;;4998994;28;20018;-84
2023/01/03 06:24:49;;;;;;;27.23;13.30;;;5.50;99.90;;;;;;4997555;28;20028;-85
2023/01/03 06:27:14;;;;;;;22.27;12.60;;;5.50;99.90;;;;;;4998123;28;20113;-83
2023/01/03 06:29:42;;;;;;;26.75;14.05;;;5.50;99.90;;;;;;4973903;28;20033;-85
2023/01/03 06:32:08;;;;;;;22.00;12.02;;;5.50;99.90;;;;;;4965141;28;20449;-85
2023/01/03 06:34:34;;;;;;;24.90;12.55;;;5.50;99.90;;;;;;4997990;28;20038;-85
2023/01/03 06:36:59;;;;;;;21.77;11.70;;;5.60;99.90;;;;;;4997173;28;20454;-85
2023/01/03 06:39:27;;;;;;;19.38;12.43;;;5.60;99.90;;;;;;4997514;28;20026;-84
2023/01/03 06:41:53;;;;;;;30.75;13.45;;;5.50;99.90;;;;;;4974234;28;20022;-84
2023/01/03 06:44:19;;;;;;;25.13;13.05;;;5.60;99.90;;;;;;4993250;28;20045;-84
2023/01/03 06:55:00;;;;;;;24.42;13.35;;;5.70;99.90;;;;;;4993598;28;20113;-84
2023/01/03 06:57:26;;;;;;;24.15;12.90;;;5.70;99.90;;;;;;4996870;28;20025;-84
2023/01/03 06:59:52;;;;;;;22.13;11.90;;;5.80;99.90;;;;;;4977369;28;20073;-83
2023/01/03 07:02:18;;;;;;;22.25;12.43;;;5.80;99.90;;;;;;4974229;28;20025;-83
2023/01/03 07:04:43;;;;;;;26.13;13.82;;;5.80;99.90;;;;;;4975442;28;20034;-84
2023/01/03 07:07:12;;;;;;;25.23;14.40;;;5.80;99.90;;;;;;4975279;28;20038;-84
2023/01/03 07:09:38;;;;;;;28.13;14.35;;;5.80;99.90;;;;;;4977350;28;20034;-83
2023/01/03 07:13:57;;;;;;;25.02;15.13;;;5.90;99.90;;;;;;5000637;28;20021;-84
2023/01/03 07:14:49;;;;;;;33.75;15.85;;;5.80;99.90;;;;;;4993264;28;20034;-84
2023/01/03 07:17:15;;;;;;;25.80;15.52;;;5.90;99.90;;;;;;4964516;28;20027;-82
2023/01/03 07:19:41;;;;;;;27.35;15.27;;;5.90;99.90;;;;;;4963946;28;20061;-83
2023/01/03 07:22:06;;;;;;;27.60;15.35;;;5.90;99.90;;;;;;5013948;28;20056;-84
2023/01/03 07:24:32;;;;;;;31.23;17.08;;;5.90;99.90;;;;;;5013715;28;20505;-84
2023/01/03 07:26:57;;;;;;;29.52;16.73;;;5.90;99.90;;;;;;4990190;28;20026;-84
2023/01/03 07:29:23;;;;;;;26.70;16.30;;;5.80;99.90;;;;;;4980082;28;20037;-84
2023/01/03 07:31:49;;;;;;;29.52;15.20;;;5.90;99.90;;;;;;4996553;28;20077;-84
2023/01/03 07:34:14;;;;;;;28.80;14.52;;;5.90;99.90;;;;;;5002625;28;20026;-85
2023/01/03 07:36:40;;;;;;;31.38;16.58;;;5.90;99.90;;;;;;4977175;28;20055;-83
2023/01/03 07:39:06;;;;;;;33.38;17.45;;;5.90;99.90;;;;;;4977068;28;20045;-85
2023/01/03 07:44:16;;;;;;;30.45;17.48;;;5.90;99.90;;;;;;4995805;28;20041;-83
2023/01/03 07:46:41;;;;;;;23.88;15.27;;;5.90;99.90;;;;;;4993165;28;20120;-83
2023/01/03 07:49:07;;;;;;;22.83;14.88;;;5.90;99.90;;;;;;4979775;28;20038;-84
2023/01/03 07:51:33;;;;;;;26.83;16.05;;;5.90;99.90;;;;;;4995190;28;20069;-84
2023/01/03 07:53:59;;;;;;;24.35;15.18;;;5.90;99.90;;;;;;4980701;28;20030;-83
2023/01/03 07:56:24;;;;;;;32.75;16.38;;;5.90;99.90;;;;;;4980462;28;20113;-83
2023/01/03 07:58:50;;;;;;;30.88;16.05;;;5.90;99.90;;;;;;4980505;28;20211;-84
2023/01/03 08:01:19;;;;;;;29.02;15.38;;;6.00;99.90;;;;;;4998050;28;20029;-83
2023/01/03 08:03:45;;;;;;;28.38;14.32;;;5.90;99.90;;;;;;4996750;28;20029;-84
2023/01/03 08:06:19;;;;;;;28.23;14.85;;;5.90;99.90;;;;;;4977178;28;20110;-84
2023/01/03 08:13:16;;;;;;;23.85;14.40;;;5.90;99.90;;;;;;4977360;28;20031;-84
2023/01/03 08:14:15;;;;;;;28.02;15.65;;;5.90;99.90;;;;;;4976989;28;20447;-83
2023/01/03 08:16:41;;;;;;;24.50;14.13;;;5.90;99.90;;;;;;4960917;28;20031;-83
2023/01/03 08:19:07;;;;;;;24.63;14.15;;;5.90;99.90;;;;;;4960609;28;20086;-83
2023/01/03 08:21:33;;;;;;;28.50;13.95;;;6.00;99.90;;;;;;4961496;28;20077;-82
2023/01/03 08:23:58;;;;;;;30.63;15.82;;;6.00;99.90;;;;;;4970242;28;20400;-82
2023/01/03 08:26:24;;;;;;;28.08;14.43;;;6.00;99.90;;;;;;4979394;28;20069;-84
2023/01/03 08:28:50;;;;;;;31.42;16.20;;;6.00;99.90;;;;;;4978963;28;20122;-83
2023/01/03 08:31:27;;;;;;;24.40;13.73;;;6.00;99.90;;;;;;4963137;28;20022;-83
2023/01/03 08:33:57;;;;;;;24.33;13.18;;;6.00;99.90;;;;;;4997435;28;20022;-83
2023/01/03 08:36:30;;;;;;;23.02;13.27;;;6.00;99.90;;;;;;4979915;28;20461;-83
2023/01/03 08:39:05;;;;;;;22.10;12.15;;;6.10;99.90;;;;;;4980275;28;20524;-83
2023/01/03 08:41:44;;;;;;;23.52;12.30;;;6.10;99.90;;;;;;4980657;28;20350;-82
2023/01/03 08:44:10;;;;;;;24.52;12.70;;;6.10;99.90;;;;;;4980270;28;20033;-83
2023/01/03 08:46:40;;;;;;;21.58;12.07;;;6.10;99.90;;;;;;4979446;28;20026;-83
2023/01/03 08:49:06;;;;;;;26.38;12.43;;;6.10;99.90;;;;;;4979624;28;20497;-83
2023/01/03 08:51:32;;;;;;;18.25;11.68;;;6.10;99.90;;;;;;4979287;28;20383;-83
2023/01/03 08:53:58;;;;;;;23.98;12.75;;;6.10;99.90;;;;;;4963549;28;20022;-83
2023/01/03 08:56:23;;;;;;;22.10;12.73;;;6.20;99.90;;;;;;4962254;28;20026;-83
2023/01/03 08:58:49;;;;;;;23.45;12.80;;;6.20;99.90;;;;;;4979634;28;20038;-83
2023/01/03 09:01:16;;;;;;;22.95;12.45;;;6.30;99.90;;;;;;4978845;28;20023;-85
2023/01/03 09:03:41;;;;;;;25.80;13.40;;;6.30;99.90;;;;;;4963595;28;20101;-83
2023/01/03 09:06:07;;;;;;;21.25;12.50;;;6.40;99.90;;;;;;4979375;28;20026;-82
2023/01/03 09:08:33;;;;;;;23.15;12.73;;;6.40;99.90;;;;;;4962838;28;20039;-82
2023/01/03 09:11:04;;;;;;;20.88;12.57;;;6.50;99.90;;;;;;4979203;28;20026;-83
2023/01/03 09:13:30;;;;;;;;;;;6.60;99.90;;;;;;4978480;28;20073;-84
2023/01/03 09:16:07;;;;;;;21.98;11.57;;;6.50;99.90;;;;;;4978010;28;20335;-82
2023/01/03 09:18:38;;;;;;;23.42;11.52;;;6.60;99.90;;;;;;4963297;28;20033;-82
2023/01/03 09:21:05;;;;;;;21.92;11.50;;;6.60;99.90;;;;;;5015900;28;20478;-82
2023/01/03 09:23:35;;;;;;;25.45;13.52;;;6.60;99.90;;;;;;4998562;28;20037;-83
2023/01/03 09:26:01;;;;;;;22.83;12.63;;;6.70;99.90;;;;;;4998450;28;20038;-83
2023/01/03 09:28:27;;;;;;;24.40;13.23;;;6.70;99.90;;;;;;4982126;28;20034;-83
2023/01/03 09:30:53;;;;;;;26.90;13.85;;;6.70;99.90;;;;;;4998756;28;20064;-83
2023/01/03 09:33:19;;;;;;;27.42;13.68;;;6.80;99.90;;;;;;4983102;28;20026;-83
2023/01/03 09:35:45;;;;;;;29.80;12.55;;;6.80;99.90;;;;;;4985406;28;20026;-84
2023/01/03 09:38:11;;;;;;;29.63;13.07;;;6.80;99.90;;;;;;5008111;28;20351;-81
2023/01/03 09:40:39;;;;;;;26.15;13.70;;;6.90;99.90;;;;;;4995538;28;20116;-83
2023/01/03 09:43:12;;;;;;;26.55;13.75;;;6.90;99.90;;;;;;5002080;28;20033;-83
2023/01/03 09:46:00;;;;;;;28.63;14.20;;;6.90;99.90;;;;;;5003529;28;20034;-83
2023/01/03 09:48:37;;;;;;;35.28;16.20;;;6.90;99.90;;;;;;5031856;28;20032;-84
2023/01/03 10:03:42;;;;;;;28.50;14.43;;;6.90;99.90;;;;;;5015183;28;20057;-82
2023/01/03 10:05:46;;;;;;;29.27;14.77;;;7.00;99.90;;;;;;5016290;28;20088;-83
2023/01/03 10:08:33;;;;;;;24.00;13.57;;;7.10;99.90;;;;;;5015022;28;20057;-82
2023/01/03 10:11:08;;;;;;;30.25;14.77;;;7.10;99.90;;;;;;4998290;28;20026;-82
2023/01/03 10:13:53;;;;;;;28.05;14.63;;;7.10;99.90;;;;;;4998152;28;20484;-83
2023/01/03 10:16:46;;;;;;;27.98;16.00;;;7.20;99.90;;;;;;4998251;28;20030;-82
2023/01/03 10:19:27;;;;;;;26.85;13.50;;;7.20;99.90;;;;;;4997681;28;20057;-82
2023/01/03 10:22:09;;;;;;;26.45;14.23;;;7.20;99.90;;;;;;4997867;28;20470;-82
2023/01/03 10:25:04;;;;;;;26.30;13.63;;;7.20;99.90;;;;;;4997759;28;20022;-84
2023/01/03 10:28:07;;;;;;;32.17;14.32;;;7.30;99.90;;;;;;4998156;28;20026;-84
2023/01/03 10:30:58;;;;;;;25.80;13.27;;;7.30;99.90;;;;;;5005613;28;20033;-84
2023/01/03 10:33:40;;;;;;;30.83;14.27;;;7.40;99.90;;;;;;4997521;28;20052;-83
2023/01/03 10:36:07;;;;;;;35.35;13.77;;;7.40;99.90;;;;;;4997933;28;20061;-84
2023/01/03 10:38:34;;;;;;;28.73;13.82;;;7.50;99.90;;;;;;4981197;28;20034;-84
2023/01/03 10:41:01;;;;;;;28.23;12.82;;;7.50;99.90;;;;;;4981495;28;20026;-84
2023/01/03 10:43:39;;;;;;;26.38;13.55;;;7.50;99.90;;;;;;4997275;28;20022;-85
2023/01/03 10:46:13;;;;;;;26.33;13.07;;;7.50;99.90;;;;;;4997267;28;20030;-83
2023/01/03 10:48:44;;;;;;;28.88;13.88;;;7.50;99.90;;;;;;4996877;28;20493;-84
2023/01/03 10:51:38;;;;;;;27.00;13.75;;;7.60;99.90;;;;;;4997375;28;20026;-83
2023/01/03 10:54:22;;;;;;;30.30;13.63;;;7.60;99.90;;;;;;4997448;28;20477;-83
2023/01/03 10:56:48;;;;;;;27.58;13.35;;;7.60;99.90;;;;;;4997364;28;20022;-83
2023/01/03 10:59:22;;;;;;;26.50;12.70;;;7.70;99.90;;;;;;4981456;28;20030;-82
2023/01/03 11:02:06;;;;;;;29.13;13.77;;;7.70;99.90;;;;;;4997564;28;20387;-84
2023/01/03 11:04:32;;;;;;;25.42;12.88;;;7.70;99.90;;;;;;4997154;28;20117;-85
2023/01/03 11:07:10;;;;;;;21.30;11.32;;;7.70;99.90;;;;;;4981048;28;20030;-83
2023/01/03 11:09:47;;;;;;;23.83;11.52;;;7.80;99.90;;;;;;4997098;28;20034;-83
2023/01/03 11:12:17;;;;;;;22.17;11.85;;;7.80;99.90;;;;;;4997327;28;20390;-84
2023/01/03 11:14:51;;;;;;;22.83;11.70;;;7.80;99.90;;;;;;4995954;28;20050;-84
2023/01/03 11:17:20;;;;;;;21.35;10.65;;;7.90;99.90;;;;;;4995805;28;20017;-84
2023/01/03 11:19:46;;;;;;;22.05;11.68;;;7.90;99.90;;;;;;4996470;28;20053;-84
2023/01/03 11:22:32;;;;;;;20.15;10.73;;;7.90;99.90;;;;;;4997215;28;20462;-84
2023/01/03 11:25:23;;;;;;;23.52;10.75;;;7.90;99.90;;;;;;5012616;28;20030;-83
2023/01/03 11:28:09;;;;;;;18.15;9.90;;;8.00;99.90;;;;;;4996756;28;20038;-84
2023/01/03 11:30:43;;;;;;;19.15;9.32;;;8.00;99.90;;;;;;4996787;28;20033;-84
2023/01/03 11:33:17;;;;;;;24.85;9.38;;;8.00;99.90;;;;;;5014358;28;20025;-83
2023/01/03 11:35:43;;;;;;;14.55;8.50;;;8.00;99.90;;;;;;4996700;28;20022;-84
2023/01/03 11:38:46;;;;;;;16.23;9.60;;;8.10;99.90;;;;;;5014200;28;20483;-83
2023/01/03 11:41:40;;;;;;;21.70;9.68;;;8.10;99.90;;;;;;4996664;28;20026;-84
2023/01/03 11:44:24;;;;;;;19.45;9.10;;;8.10;99.90;;;;;;4997048;28;20462;-84
2023/01/03 11:47:30;;;;;;;18.33;8.93;;;8.20;99.90;;;;;;4996239;28;20030;-83
2023/01/03 11:50:10;;;;;;;15.70;8.88;;;8.10;99.90;;;;;;4997060;28;20042;-83
2023/01/03 11:52:49;;;;;;;16.33;9.10;;;8.20;99.90;;;;;;5013392;28;20018;-85
2023/01/03 11:55:32;;;;;;;18.55;9.13;;;8.20;99.90;;;;;;4996752;28;20018;-83
2023/01/03 11:58:04;;;;;;;13.65;9.15;;;8.20;99.90;;;;;;4994473;28;20474;-84
2023/01/03 12:00:57;;;;;;;24.25;9.07;;;8.20;99.90;;;;;;4995878;28;20030;-84
2023/01/03 12:03:57;;;;;;;15.95;8.35;;;8.30;99.90;;;;;;4996802;28;20530;-84
2023/01/03 12:06:43;;;;;;;21.52;8.88;;;8.30;99.90;;;;;;5012582;28;20006;-83
2023/01/03 12:09:15;;;;;;;13.27;7.88;;;8.30;99.90;;;;;;4993633;28;20042;-84
2023/01/03 12:12:03;;;;;;;12.98;8.00;;;8.30;99.90;;;;;;4995934;28;20041;-84
2023/01/03 12:14:32;;;;;;;16.48;8.82;;;8.30;99.90;;;;;;5014203;28;20014;-90
2023/01/03 12:18:00;;;;;;;11.38;7.18;;;8.40;99.90;;;;;;4996461;28;20066;-90
2023/01/03 12:20:43;;;;;;;15.27;7.70;;;8.40;99.90;;;;;;4997494;28;20046;-84
2023/01/03 12:23:14;;;;;;;14.55;7.45;;;8.40;99.90;;;;;;4996661;28;20136;-84
2023/01/03 12:25:48;;;;;;;;;;;8.40;99.90;;;;;;4996797;28;20170;-86
2023/01/03 12:28:30;;;;;;;16.23;7.47;;;8.40;99.90;;;;;;4996243;28;19913;-85
2023/01/03 12:31:10;;;;;;;13.77;8.43;;;8.40;99.90;;;;;;4998051;28;20474;-85
2023/01/03 12:33:41;;;;;;;17.33;7.80;;;8.40;99.90;;;;;;5017177;28;20064;-85
2023/01/03 12:36:39;;;;;;;13.90;8.00;;;8.40;99.90;;;;;;5000110;28;20018;-84
2023/01/03 12:39:37;;;;;;;18.48;8.35;;;8.50;99.90;;;;;;4999954;28;20149;-91
2023/01/03 12:42:11;;;;;;;17.50;8.60;;;8.50;99.90;;;;;;4999263;28;20026;-84
2023/01/03 12:44:39;;;;;;;14.40;8.05;;;8.50;99.90;;;;;;4999482;28;20053;-84
2023/01/03 12:47:09;;;;;;;12.77;7.75;;;8.50;99.90;;;;;;4999624;28;20048;-85
2023/01/03 12:49:42;;;;;;;16.92;9.82;;;8.50;99.90;;;;;;4999739;28;20041;-84
2023/01/03 12:52:13;;;;;;;12.80;7.18;;;8.50;99.90;;;;;;4999562;28;20030;-85
2023/01/03 12:54:51;;;;;;;16.80;8.43;;;8.50;99.90;;;;;;4999680;28;20097;-85
2023/01/03 12:57:34;;;;;;;15.68;7.60;;;8.60;99.90;;;;;;5000161;28;20048;-85
2023/01/03 13:00:36;;;;;;;15.48;7.25;;;8.60;99.90;;;;;;4999873;28;20017;-84
2023/01/03 13:03:23;;;;;;;14.98;7.22;;;8.50;99.90;;;;;;4999003;28;20029;-84
2023/01/03 13:06:01;;;;;;;12.95;7.28;;;8.50;99.90;;;;;;4999715;28;20022;-85
2023/01/03 13:08:35;;;;;;;14.00;6.90;;;8.60;99.90;;;;;;4999722;28;20049;-84
2023/01/03 13:11:16;;;;;;;15.38;8.30;;;8.50;99.90;;;;;;4999270;28;20029;-85
2023/01/03 13:13:51;;;;;;;;;;;8.60;99.90;;;;;;4999906;28;20057;-84
2023/01/03 13:16:35;;;;;;;14.70;6.63;;;8.60;99.90;;;;;;4999335;28;19967;-84
2023/01/03 13:19:19;;;;;;;11.93;7.28;;;8.60;99.90;;;;;;4999232;28;20093;-84
2023/01/03 13:21:53;;;;;;;15.20;7.88;;;8.70;99.90;;;;;;4999633;28;20036;-84
2023/01/03 13:24:38;;;;;;;12.32;7.30;;;8.70;99.90;;;;;;5016962;28;20029;-84
2023/01/03 13:27:37;;;;;;;13.98;6.40;;;8.70;99.90;;;;;;5000546;28;20032;-84
2023/01/03 13:30:17;;;;;;;13.23;6.30;;;8.70;99.90;;;;;;5018245;28;20041;-83
2023/01/03 13:33:02;;;;;;;12.07;4.85;;;8.80;99.90;;;;;;5021824;28;20351;-83
2023/01/03 13:35:50;;;;;;;9.90;4.57;;;8.80;99.90;;;;;;5016900;28;20022;-83
2023/01/03 13:38:29;;;;;;;10.85;4.50;;;8.80;99.90;;;;;;5017216;28;20076;-83
2023/01/03 13:41:08;;;;;;;8.25;4.45;;;8.80;99.90;;;;;;5033196;28;20033;-83
2023/01/03 13:43:36;;;;;;;12.65;4.30;;;8.80;99.90;;;;;;5018820;28;20033;-84
2023/01/03 13:46:31;;;;;;;10.18;4.15;;;8.80;99.90;;;;;;4999382;28;20445;-84
2023/01/03 13:49:09;;;;;;;7.35;3.88;;;8.80;99.90;;;;;;4998929;28;20030;-84
2023/01/03 13:51:48;;;;;;;8.23;3.53;;;8.80;99.90;;;;;;5016646;28;20077;-84
2023/01/03 13:54:16;;;;;;;9.50;4.25;;;8.80;99.90;;;;;;4998890;28;20022;-84
2023/01/03 13:56:42;;;;;;;8.52;4.03;;;8.80;99.90;;;;;;4998940;28;20026;-83
2023/01/03 13:59:13;;;;;;;9.02;3.78;;;8.80;99.90;;;;;;5016161;28;20029;-84
2023/01/03 14:02:07;;;;;;;8.30;3.85;;;8.80;99.90;;;;;;5000607;28;20508;-83
2023/01/03 14:05:20;;;;;;;10.70;3.83;;;8.90;99.90;;;;;;4998603;28;20474;-84
2023/01/03 14:07:55;;;;;;;9.38;4.03;;;8.90;99.90;;;;;;4998094;28;20378;-83
2023/01/03 14:10:39;;;;;;;6.90;3.65;;;9.00;99.90;;;;;;5015612;28;20026;-83